createdAt,value
2018-02-02T00:00:08.996Z,59.50
2018-02-02T00:02:36.526Z,60.00
2018-02-02T00:05:04.843Z,61.10
2018-02-02T00:07:32.377Z,61.60
2018-02-02T00:09:59.912Z,62.70
2018-02-02T00:12:28.597Z,63.10
2018-02-02T00:14:56.881Z,63.00
2018-02-02T00:17:25.200Z,61.90
2018-02-02T00:19:52.734Z,60.30
2018-02-02T00:22:20.286Z,59.30
2018-02-02T00:24:47.819Z,58.60
2018-02-02T00:27:16.163Z,59.00
2018-02-02T00:29:43.690Z,57.90
2018-02-02T00:32:11.238Z,57.90
2018-02-02T00:34:38.769Z,58.20
2018-02-02T00:37:06.714Z,58.10
2018-02-02T00:39:34.264Z,58.10
2018-02-02T00:42:02.217Z,58.00
2018-02-02T00:44:30.531Z,58.00
2018-02-02T00:46:58.854Z,58.00
2018-02-02T00:49:29.442Z,58.10
2018-02-02T00:52:01.261Z,58.20
2018-02-02T00:54:28.942Z,58.50
2018-02-02T00:56:56.495Z,58.50
2018-02-02T00:59:24.042Z,58.30
2018-02-02T01:01:51.587Z,58.50
2018-02-02T01:04:19.897Z,58.50
2018-02-02T01:06:47.453Z,58.80
2018-02-02T01:09:14.995Z,58.80
2018-02-02T01:11:42.553Z,58.80
2018-02-02T01:14:10.086Z,58.70
2018-02-02T01:16:38.412Z,59.00
2018-02-02T01:19:05.945Z,58.90
2018-02-02T01:21:33.478Z,59.00
2018-02-02T01:24:01.800Z,59.50
2018-02-02T01:26:29.334Z,58.70
2018-02-02T01:28:56.894Z,58.60
2018-02-02T01:31:24.432Z,58.50
2018-02-02T01:33:52.806Z,58.90
2018-02-02T01:36:20.343Z,58.70
2018-02-02T01:38:48.300Z,58.50
2018-02-02T01:41:16.633Z,58.90
2018-02-02T01:43:44.194Z,58.90
2018-02-02T01:46:11.730Z,58.40
2018-02-02T01:48:39.294Z,57.80
2018-02-02T01:51:06.866Z,57.70
2018-02-02T01:53:34.423Z,57.80
2018-02-02T01:56:01.954Z,58.10
2018-02-02T01:58:30.273Z,58.70
2018-02-02T02:00:57.818Z,58.50
2018-02-02T02:03:25.373Z,58.40
2018-02-02T02:05:52.906Z,58.20
2018-02-02T02:08:21.596Z,58.10
2018-02-02T02:10:49.911Z,58.50
2018-02-02T02:13:17.459Z,58.60
2018-02-02T02:15:45.390Z,59.00
2018-02-02T02:18:13.345Z,58.80
2018-02-02T02:20:41.637Z,59.30
2018-02-02T02:23:09.962Z,59.10
2018-02-02T02:25:37.503Z,58.40
2018-02-02T02:28:05.055Z,58.10
2018-02-02T02:30:32.582Z,58.10
2018-02-02T02:33:00.890Z,58.50
2018-02-02T02:35:28.440Z,57.70
2018-02-02T02:37:56.374Z,57.70
2018-02-02T02:40:23.992Z,57.80
2018-02-02T02:42:51.526Z,58.00
2018-02-02T02:45:19.090Z,58.30
2018-02-02T02:47:46.621Z,57.90
2018-02-02T02:50:14.942Z,57.40
2018-02-02T02:52:42.519Z,57.30
2018-02-02T02:55:10.070Z,57.00
2018-02-02T02:57:37.616Z,56.90
2018-02-02T03:00:06.004Z,57.20
2018-02-02T03:02:33.543Z,57.30
2018-02-02T03:05:01.098Z,57.20
2018-02-02T03:07:28.663Z,57.30
2018-02-02T03:09:56.223Z,57.50
2018-02-02T03:12:23.761Z,57.50
2018-02-02T03:14:52.097Z,58.00
2018-02-02T03:17:19.658Z,57.40
2018-02-02T03:19:47.209Z,57.60
2018-02-02T03:22:15.150Z,57.50
2018-02-02T03:24:42.706Z,57.60
2018-02-02T03:27:10.234Z,57.70
2018-02-02T03:29:38.181Z,57.50
2018-02-02T03:32:05.714Z,57.60
2018-02-02T03:34:33.280Z,57.80
2018-02-02T03:37:01.225Z,57.80
2018-02-02T03:39:28.762Z,57.70
2018-02-02T03:41:57.130Z,58.10
2018-02-02T03:44:25.473Z,58.10
2018-02-02T03:46:53.008Z,57.60
2018-02-02T03:49:20.552Z,57.60
2018-02-02T03:51:48.958Z,57.60
2018-02-02T03:54:16.490Z,57.50
2018-02-02T03:56:44.038Z,57.50
2018-02-02T03:59:12.346Z,57.90
2018-02-02T04:01:39.907Z,57.30
2018-02-02T04:04:07.445Z,57.40
2018-02-02T04:06:34.997Z,57.60
2018-02-02T04:09:03.300Z,58.10
2018-02-02T04:11:30.860Z,57.50
2018-02-02T04:13:58.399Z,57.60
2018-02-02T04:16:26.722Z,57.80
2018-02-02T04:18:54.255Z,58.50
2018-02-02T04:21:21.822Z,58.40
2018-02-02T04:23:50.195Z,58.10
2018-02-02T04:26:17.753Z,57.90
2018-02-02T04:28:45.685Z,57.70
2018-02-02T04:31:14.035Z,58.10
2018-02-02T04:33:41.579Z,58.10
2018-02-02T04:36:11.100Z,57.80
2018-02-02T04:38:38.633Z,57.60
2018-02-02T04:41:06.195Z,57.50
2018-02-02T04:43:34.502Z,57.50
2018-02-02T04:46:02.078Z,57.60
2018-02-02T04:48:30.386Z,57.90
2018-02-02T04:50:57.950Z,57.30
2018-02-02T04:53:25.477Z,57.20
2018-02-02T04:55:53.778Z,57.80
2018-02-02T04:58:21.734Z,57.20
2018-02-02T05:00:50.042Z,57.00
2018-02-02T05:03:17.602Z,57.00
2018-02-02T05:05:45.530Z,57.30
2018-02-02T05:08:13.842Z,57.90
2018-02-02T05:10:41.382Z,57.30
2018-02-02T05:13:08.930Z,57.20
2018-02-02T05:15:37.226Z,57.60
2018-02-02T05:18:05.178Z,57.10
2018-02-02T05:20:33.099Z,57.00
2018-02-02T05:23:00.672Z,56.90
2018-02-02T05:25:28.605Z,56.90
2018-02-02T05:27:56.939Z,56.80
2018-02-02T05:30:24.890Z,56.90
2018-02-02T05:32:52.437Z,56.90
2018-02-02T05:35:19.978Z,57.00
2018-02-02T05:37:47.524Z,56.90
2018-02-02T05:40:16.194Z,57.40
2018-02-02T05:42:43.745Z,57.00
2018-02-02T05:45:11.288Z,57.00
2018-02-02T05:47:39.249Z,56.90
2018-02-02T05:50:07.563Z,57.40
2018-02-02T05:52:35.105Z,56.60
2018-02-02T05:55:03.035Z,56.60
2018-02-02T05:57:32.110Z,57.10
2018-02-02T05:59:59.643Z,57.40
2018-02-02T06:02:27.957Z,57.70
2018-02-02T06:04:55.514Z,57.20
2018-02-02T06:07:23.074Z,56.50
2018-02-02T06:09:51.015Z,56.90
2018-02-02T06:12:19.714Z,56.90
2018-02-02T06:14:47.247Z,56.70
2018-02-02T06:17:14.814Z,57.00
2018-02-02T06:19:42.346Z,56.70
2018-02-02T06:22:10.648Z,56.40
2018-02-02T06:24:38.603Z,55.50
2018-02-02T06:27:06.146Z,55.30
2018-02-02T06:29:34.465Z,55.30
2018-02-02T06:32:02.020Z,55.10
2018-02-02T06:34:29.571Z,55.10
2018-02-02T06:37:05.236Z,55.10
2018-02-02T06:39:32.798Z,54.70
2018-02-02T06:42:00.334Z,54.60
2018-02-02T06:44:28.279Z,54.60
2018-02-02T06:46:56.581Z,55.00
2018-02-02T06:49:24.527Z,54.70
2018-02-02T06:51:52.836Z,55.00
2018-02-02T06:54:20.391Z,54.50
2018-02-02T06:56:47.930Z,54.60
2018-02-02T06:59:16.250Z,54.80
2018-02-02T07:01:43.786Z,55.00
2018-02-02T07:04:11.343Z,55.20
2018-02-02T07:06:39.389Z,55.50
2018-02-02T07:09:07.363Z,55.70
2018-02-02T07:11:35.309Z,55.50
2018-02-02T07:14:02.865Z,55.40
2018-02-02T07:16:30.406Z,56.00
2018-02-02T07:18:58.887Z,56.10
2018-02-02T07:21:26.809Z,55.90
2018-02-02T07:23:55.133Z,57.00
2018-02-02T07:26:22.783Z,56.10
2018-02-02T07:28:50.336Z,56.10
2018-02-02T07:31:17.880Z,56.10
2018-02-02T07:36:39.463Z,56.40
2018-02-02T07:39:07.038Z,56.40
2018-02-02T07:41:34.609Z,56.40
2018-02-02T07:44:02.181Z,56.70
2018-02-02T07:46:30.495Z,57.70
2018-02-02T07:48:58.053Z,56.60
2018-02-02T07:51:25.987Z,56.80
2018-02-02T07:53:53.974Z,56.80
2018-02-02T07:56:22.376Z,56.70
2018-02-02T07:58:49.921Z,56.30
2018-02-02T08:01:18.922Z,55.20
2018-02-02T08:03:46.448Z,55.60
2018-02-02T08:06:14.024Z,55.30
2018-02-02T08:08:42.347Z,54.90
2018-02-02T08:11:09.916Z,54.20
2018-02-02T08:13:40.322Z,54.20
2018-02-02T08:16:08.098Z,54.00
2018-02-02T08:18:36.401Z,53.50
2018-02-02T08:21:04.384Z,52.60
2018-02-02T08:23:32.328Z,53.80
2018-02-02T08:26:00.794Z,54.50
2018-02-02T08:28:28.337Z,54.10
2018-02-02T08:30:56.540Z,52.80
2018-02-02T08:33:24.855Z,53.20
2018-02-02T08:35:53.183Z,52.30
2018-02-02T08:38:21.519Z,52.60
2018-02-02T08:40:49.838Z,53.00
2018-02-02T08:43:18.149Z,52.40
2018-02-02T08:45:46.101Z,51.20
2018-02-02T08:48:13.635Z,51.40
2018-02-02T08:50:41.951Z,52.00
2018-02-02T08:53:10.271Z,51.30
2018-02-02T08:55:38.589Z,50.60
2018-02-02T08:58:06.911Z,51.40
2018-02-02T09:00:35.247Z,52.00
2018-02-02T09:03:03.590Z,53.20
2018-02-02T09:05:31.550Z,53.70
2018-02-02T09:07:59.087Z,53.60
2018-02-02T09:10:27.151Z,54.10
2018-02-02T09:12:55.472Z,54.90
2018-02-02T09:15:23.802Z,54.70
2018-02-02T09:17:52.119Z,54.60
2018-02-02T09:20:19.671Z,53.10
2018-02-02T09:22:58.410Z,53.10
2018-02-02T09:25:26.076Z,53.40
2018-02-02T09:27:53.530Z,53.10
2018-02-02T09:30:21.619Z,53.30
2018-02-02T09:32:49.585Z,53.10
2018-02-02T09:35:17.611Z,53.20
2018-02-02T09:37:45.936Z,53.10
2018-02-02T09:40:14.234Z,53.00
2018-02-02T09:42:41.794Z,52.50
2018-02-02T09:45:09.788Z,52.50
2018-02-02T09:47:37.739Z,51.30
2018-02-02T09:50:06.028Z,52.00
2018-02-02T09:52:39.006Z,51.00
2018-02-02T09:55:07.372Z,50.60
2018-02-02T09:57:36.456Z,50.30
2018-02-02T10:00:04.807Z,51.10
2018-02-02T10:02:56.286Z,52.00
2018-02-02T10:05:25.567Z,52.30
2018-02-02T10:07:53.899Z,52.30
2018-02-02T10:10:22.894Z,52.10
2018-02-02T10:12:50.452Z,52.00
2018-02-02T10:15:17.986Z,51.50
2018-02-02T10:17:46.306Z,50.90
2018-02-02T10:20:14.259Z,50.30
2018-02-02T10:22:42.584Z,50.20
2018-02-02T10:25:10.887Z,50.50
2018-02-02T10:27:39.273Z,50.40
2018-02-02T10:30:07.579Z,50.70
2018-02-02T10:32:35.908Z,50.30
2018-02-02T10:35:04.227Z,51.30
2018-02-02T10:37:32.543Z,51.40
2018-02-02T10:40:00.872Z,51.70
2018-02-02T10:42:29.204Z,51.30
2018-02-02T10:44:57.508Z,51.00
2018-02-02T10:47:25.078Z,51.00
2018-02-02T10:49:53.026Z,51.40
2018-02-02T10:52:21.413Z,51.60
2018-02-02T10:55:14.830Z,51.60
2018-02-02T10:58:03.827Z,52.10
2018-02-02T11:00:37.776Z,51.70
2018-02-02T11:03:11.399Z,51.20
2018-02-02T11:05:39.522Z,50.80
2018-02-02T11:08:07.962Z,51.40
2018-02-02T11:10:36.351Z,51.50
2018-02-02T11:13:04.736Z,52.00
2018-02-02T11:15:33.826Z,51.70
2018-02-02T11:18:01.515Z,50.20
2018-02-02T11:20:29.919Z,50.60
2018-02-02T11:22:58.234Z,50.30
2018-02-02T11:25:26.179Z,49.90
2018-02-02T11:27:54.502Z,50.90
2018-02-02T11:30:22.028Z,51.40
2018-02-02T11:32:50.003Z,51.00
2018-02-02T11:35:18.342Z,51.00
2018-02-02T11:37:46.656Z,51.00
2018-02-02T11:40:15.371Z,50.60
2018-02-02T11:42:43.295Z,49.90
2018-02-02T11:45:10.874Z,50.20
2018-02-02T11:47:38.799Z,50.40
2018-02-02T11:50:06.398Z,50.10
2018-02-02T11:52:34.348Z,49.80
2018-02-02T11:55:01.967Z,49.90
2018-02-02T11:57:29.903Z,49.40
2018-02-02T11:59:58.244Z,50.30
2018-02-02T12:02:26.534Z,50.60
2018-02-02T12:04:55.018Z,51.20
2018-02-02T12:07:24.055Z,51.70
2018-02-02T12:09:52.369Z,51.60
2018-02-02T12:12:19.975Z,51.70
2018-02-02T12:14:48.509Z,52.00
2018-02-02T12:17:16.818Z,51.60
2018-02-02T12:19:45.916Z,50.90
2018-02-02T12:22:14.240Z,51.30
2018-02-02T12:24:47.560Z,51.20
2018-02-02T12:27:18.191Z,51.30
2018-02-02T12:29:46.547Z,51.20
2018-02-02T12:32:20.643Z,50.40
2018-02-02T12:35:00.842Z,50.80
2018-02-02T12:37:28.395Z,51.00
2018-02-02T12:39:57.323Z,51.20
2018-02-02T12:42:25.619Z,51.10
2018-02-02T12:44:53.939Z,50.60
2018-02-02T12:47:22.247Z,50.80
2018-02-02T12:50:02.594Z,52.00
2018-02-02T12:52:30.887Z,51.80
2018-02-02T12:54:59.204Z,52.00
2018-02-02T12:57:27.495Z,52.10
2018-02-02T12:59:56.428Z,52.70
2018-02-02T13:02:24.375Z,51.70
2018-02-02T13:04:52.436Z,51.60
2018-02-02T13:07:20.361Z,51.70
2018-02-02T13:09:48.307Z,50.90
2018-02-02T13:12:16.231Z,51.20
2018-02-02T13:14:44.535Z,51.20
2018-02-02T13:17:13.606Z,51.80
2018-02-02T13:19:41.155Z,50.80
2018-02-02T13:22:09.492Z,50.60
2018-02-02T13:24:37.821Z,50.20
2018-02-02T13:27:06.132Z,50.50
2018-02-02T13:29:35.182Z,51.30
2018-02-02T13:32:02.922Z,50.30
2018-02-02T13:34:31.278Z,50.10
2018-02-02T13:36:59.411Z,49.60
2018-02-02T13:39:27.710Z,50.00
2018-02-02T13:41:56.019Z,50.60
2018-02-02T13:44:24.887Z,51.00
2018-02-02T13:46:52.934Z,51.20
2018-02-02T13:49:20.891Z,51.40
2018-02-02T13:51:49.253Z,51.90
2018-02-02T13:54:17.556Z,51.90
2018-02-02T13:56:45.979Z,52.20
2018-02-02T13:59:14.303Z,53.00
2018-02-02T14:01:42.262Z,52.50
2018-02-02T14:04:10.999Z,52.00
2018-02-02T14:06:40.130Z,52.60
2018-02-02T14:09:09.120Z,52.50
2018-02-02T14:11:37.469Z,52.10
2018-02-02T14:14:05.763Z,52.10
2018-02-02T14:16:34.083Z,52.20
2018-02-02T14:19:02.418Z,52.00
2018-02-02T14:21:30.735Z,51.90
2018-02-02T14:23:59.092Z,52.10
2018-02-02T14:26:27.406Z,52.70
2018-02-02T14:28:56.574Z,53.60
2018-02-02T14:31:24.635Z,52.90
2018-02-02T14:33:52.203Z,53.00
2018-02-02T14:36:20.511Z,52.20
2018-02-02T14:38:49.583Z,52.60
2018-02-02T14:41:17.552Z,51.10
2018-02-02T14:43:45.494Z,50.30
2018-02-02T14:46:13.058Z,49.10
2018-02-02T14:48:41.748Z,49.30
2018-02-02T14:51:10.054Z,49.50
2018-02-02T14:53:37.654Z,47.80
2018-02-02T14:56:05.193Z,48.20
2018-02-02T14:58:32.755Z,43.60
2018-02-02T15:01:00.299Z,41.10
2018-02-02T15:03:27.863Z,39.50
2018-02-02T15:05:55.411Z,39.10
2018-02-02T15:08:23.363Z,40.50
2018-02-02T15:10:51.735Z,42.30
2018-02-02T15:13:20.043Z,43.90
2018-02-02T15:15:48.335Z,45.90
2018-02-02T15:18:16.348Z,47.10
2018-02-02T15:20:44.672Z,49.10
2018-02-02T15:23:14.066Z,49.70
2018-02-02T15:25:41.627Z,50.10
2018-02-02T15:28:09.956Z,50.00
2018-02-02T15:30:38.318Z,49.50
2018-02-02T15:33:07.362Z,49.50
2018-02-02T15:35:35.299Z,50.20
2018-02-02T15:38:03.244Z,50.60
2018-02-02T15:40:31.598Z,50.00
2018-02-02T15:42:59.923Z,49.00
2018-02-02T15:45:28.210Z,49.80
2018-02-02T15:47:56.600Z,49.90
2018-02-02T15:50:24.675Z,50.20
2018-02-02T15:52:52.263Z,49.70
2018-02-02T15:55:20.301Z,49.60
2018-02-02T15:57:48.595Z,50.10
2018-02-02T16:00:16.910Z,50.70
2018-02-02T16:02:45.236Z,51.00
2018-02-02T16:05:13.560Z,50.80
2018-02-02T16:07:41.848Z,50.80
2018-02-02T16:10:10.185Z,51.00
2018-02-02T16:12:38.488Z,52.10
2018-02-02T16:15:06.902Z,52.40
2018-02-02T16:17:35.220Z,52.80
2018-02-02T16:20:03.537Z,52.70
2018-02-02T16:22:31.852Z,52.00
2018-02-02T16:25:00.699Z,50.60
2018-02-02T16:27:28.619Z,49.60
2018-02-02T16:29:56.936Z,50.00
2018-02-02T16:32:24.854Z,50.50
2018-02-02T16:34:52.419Z,51.30
2018-02-02T16:37:20.450Z,51.40
2018-02-02T16:39:48.804Z,50.60
2018-02-02T16:42:17.341Z,49.80
2018-02-02T16:44:45.295Z,49.90
2018-02-02T16:47:12.826Z,49.50
2018-02-02T16:49:41.074Z,49.10
2018-02-02T16:52:09.432Z,48.90
2018-02-02T16:54:37.746Z,49.60
2018-02-02T16:57:05.771Z,50.00
2018-02-02T16:59:33.716Z,49.80
2018-02-02T17:02:01.247Z,50.00
2018-02-02T17:04:29.671Z,50.30
2018-02-02T17:06:57.974Z,50.90
2018-02-02T17:09:26.493Z,50.80
2018-02-02T17:11:54.794Z,50.00
2018-02-02T17:14:23.106Z,49.00
2018-02-02T17:16:52.063Z,48.90
2018-02-02T17:19:19.698Z,49.00
2018-02-02T17:21:47.243Z,49.20
2018-02-02T17:24:15.158Z,49.00
2018-02-02T17:26:43.471Z,49.40
2018-02-02T17:29:11.799Z,50.00
2018-02-02T17:31:40.256Z,50.30
2018-02-02T17:34:08.591Z,51.10
2018-02-02T17:36:36.935Z,51.00
2018-02-02T17:39:05.239Z,51.10
2018-02-02T17:41:32.775Z,51.60
2018-02-02T17:44:01.077Z,51.50
2018-02-02T17:46:29.144Z,51.10
2018-02-02T17:48:57.070Z,51.40
2018-02-02T17:51:53.307Z,52.00
2018-02-02T17:54:22.661Z,53.00
2018-02-02T17:56:50.255Z,52.60
2018-02-02T17:59:18.551Z,52.90
2018-02-02T18:01:50.570Z,52.50
2018-02-02T18:04:18.090Z,52.70
2018-02-02T18:06:56.574Z,52.40
2018-02-02T18:09:24.526Z,52.10
2018-02-02T18:11:52.844Z,51.20
2018-02-02T18:14:21.203Z,50.50
2018-02-02T18:16:50.291Z,50.50
2018-02-02T18:19:17.832Z,49.70
2018-02-02T18:21:46.180Z,49.30
2018-02-02T18:24:14.519Z,50.00
2018-02-02T18:26:42.526Z,51.00
2018-02-02T18:29:10.231Z,51.70
2018-02-02T18:31:38.175Z,51.20
2018-02-02T18:34:06.467Z,50.60
2018-02-02T18:36:34.786Z,50.30
2018-02-02T18:39:03.150Z,51.30
2018-02-02T18:41:31.466Z,49.80
2018-02-02T18:43:59.012Z,49.70
2018-02-02T18:46:28.682Z,49.80
2018-02-02T18:48:56.607Z,49.70
2018-02-02T18:51:24.929Z,50.10
2018-02-02T18:53:53.480Z,50.50
2018-02-02T18:56:21.790Z,50.40
2018-02-02T18:58:49.742Z,50.00
2018-02-02T19:01:17.279Z,49.70
2018-02-02T19:03:45.207Z,49.90
2018-02-02T19:06:12.832Z,49.90
2018-02-02T19:08:40.757Z,49.90
2018-02-02T19:11:08.747Z,50.00
2018-02-02T19:13:36.267Z,50.60
2018-02-02T19:16:04.618Z,50.40
2018-02-02T19:18:32.599Z,50.00
2018-02-02T19:21:00.910Z,50.60
2018-02-02T19:23:29.304Z,50.90
2018-02-02T19:25:57.646Z,50.40
2018-02-02T19:28:26.049Z,50.30
2018-02-02T19:30:54.805Z,50.10
2018-02-02T19:33:22.739Z,50.20
2018-02-02T19:35:51.035Z,50.80
2018-02-02T19:38:19.437Z,51.10
2018-02-02T19:40:47.733Z,51.40
2018-02-02T19:43:16.054Z,51.80
2018-02-02T19:45:43.634Z,51.20
2018-02-02T19:48:11.943Z,51.90
2018-02-02T19:50:39.867Z,52.80
2018-02-02T19:53:09.077Z,53.00
2018-02-02T19:55:37.005Z,51.80
2018-02-02T19:58:05.026Z,51.60
2018-02-02T20:00:33.324Z,51.60
2018-02-02T20:03:01.732Z,52.70
2018-02-02T20:05:30.051Z,52.50
2018-02-02T20:07:58.434Z,52.00
2018-02-02T20:10:26.790Z,52.50
2018-02-02T20:12:55.158Z,52.90
2018-02-02T20:15:23.511Z,53.00
2018-02-02T20:17:52.239Z,53.60
2018-02-02T20:20:20.176Z,52.80
2018-02-02T20:22:48.518Z,52.60
2018-02-02T20:25:16.819Z,52.30
2018-02-02T20:27:45.138Z,51.60
2018-02-02T20:30:13.586Z,51.40
2018-02-02T20:32:42.011Z,52.00
2018-02-02T20:35:09.936Z,52.00
2018-02-02T20:37:37.716Z,51.80
2018-02-02T20:40:05.290Z,51.20
2018-02-02T20:42:34.378Z,51.40
2018-02-02T20:45:03.488Z,51.80
2018-02-02T20:47:31.792Z,51.90
2018-02-02T20:50:00.193Z,51.70
2018-02-02T20:52:27.841Z,51.20
2018-02-02T20:54:55.400Z,51.10
2018-02-02T20:57:22.979Z,50.90
2018-02-02T20:59:50.925Z,50.90
2018-02-02T21:02:19.269Z,51.00
2018-02-02T21:04:47.253Z,51.20
2018-02-02T21:07:16.104Z,51.40
2018-02-02T21:09:44.098Z,51.70
2018-02-02T21:12:12.402Z,51.90
2018-02-02T21:14:39.955Z,51.30
2018-02-02T21:17:07.961Z,51.20
2018-02-02T21:19:36.299Z,51.60
2018-02-02T21:22:04.648Z,51.80
2018-02-02T21:24:32.954Z,51.90
2018-02-02T21:29:56.449Z,51.90
2018-02-02T21:32:24.391Z,51.70
2018-02-02T21:34:54.162Z,52.30
2018-02-02T21:37:22.574Z,51.90
2018-02-02T21:39:50.914Z,51.80
2018-02-02T21:42:19.202Z,51.70
2018-02-02T21:44:47.557Z,51.90
2018-02-02T21:47:15.927Z,51.50
2018-02-02T21:49:44.352Z,51.50
2018-02-02T21:52:12.740Z,51.80
2018-02-02T21:54:44.538Z,51.70
2018-02-02T21:57:12.107Z,51.70
2018-02-02T21:59:40.050Z,51.60
2018-02-02T22:02:08.434Z,51.60
2018-02-02T22:04:36.426Z,51.10
2018-02-02T22:07:04.151Z,51.10
2018-02-02T22:09:32.603Z,50.60
2018-02-02T22:12:00.528Z,51.00
2018-02-02T22:14:28.829Z,51.40
2018-02-02T22:16:56.371Z,50.80
2018-02-02T22:19:24.311Z,52.00
2018-02-02T22:21:52.634Z,52.80
2018-02-02T22:24:21.175Z,52.30
2018-02-02T22:26:49.753Z,51.60
2018-02-02T22:29:17.926Z,51.30
2018-02-02T22:31:46.288Z,50.90
2018-02-02T22:34:14.332Z,50.60
2018-02-02T22:36:42.643Z,50.60
2018-02-02T22:39:11.520Z,50.60
2018-02-02T22:41:39.490Z,51.60
2018-02-02T22:44:07.816Z,51.50
2018-02-02T22:46:36.238Z,51.20
2018-02-02T22:49:04.592Z,50.90
2018-02-02T22:51:33.016Z,50.70
2018-02-02T22:54:02.089Z,51.50
2018-02-02T22:56:29.745Z,51.20
2018-02-02T22:58:58.111Z,51.20
2018-02-02T23:01:26.917Z,51.70
2018-02-02T23:03:56.811Z,51.60
2018-02-02T23:06:24.386Z,51.60
2018-02-02T23:08:53.109Z,52.00
2018-02-02T23:11:22.340Z,51.40
2018-02-02T23:13:50.707Z,51.70
2018-02-02T23:16:19.118Z,52.80
2018-02-02T23:18:47.083Z,53.30
2018-02-02T23:21:15.251Z,53.20
2018-02-02T23:23:43.291Z,53.80
2018-02-02T23:26:12.140Z,54.00
2018-02-02T23:28:39.785Z,53.80
2018-02-02T23:31:07.747Z,53.80
2018-02-02T23:33:35.295Z,54.30
2018-02-02T23:36:03.243Z,54.60
2018-02-02T23:38:31.535Z,53.90
2018-02-02T23:40:59.622Z,54.00
2018-02-02T23:43:27.384Z,53.30
2018-02-02T23:45:55.519Z,52.80
2018-02-02T23:48:23.491Z,52.80
2018-02-02T23:50:51.019Z,52.50
2018-02-02T23:53:19.600Z,52.10
2018-02-02T23:55:47.916Z,52.10
2018-02-02T23:58:16.489Z,52.40
